sensor_id;sensor_type;location;lat;lon;timestamp;pressure;altitude;pressure_sealevel;temperature;humidity
62592;BME280;48659;41.622;2.276;2023-03-16T00:00:01;99980.42;;;7.88;60.53
62592;BME280;48659;41.622;2.276;2023-03-16T00:02:29;99977.23;;;8.10;57.55
62592;BME280;48659;41.622;2.276;2023-03-16T00:04:57;99973.73;;;9.27;55.98
62592;BME280;48659;41.622;2.276;2023-03-16T00:07:24;99974.78;;;9.74;54.56
62592;BME280;48659;41.622;2.276;2023-03-16T00:09:51;99979.12;;;9.97;53.58
62592;BME280;48659;41.622;2.276;2023-03-16T00:12:25;99981.56;;;9.74;52.63
62592;BME280;48659;41.622;2.276;2023-03-16T00:14:52;99984.66;;;10.76;51.50
62592;BME280;48659;41.622;2.276;2023-03-16T00:17:20;99979.40;;;9.71;52.80
62592;BME280;48659;41.622;2.276;2023-03-16T00:19:49;99978.35;;;9.87;53.36
62592;BME280;48659;41.622;2.276;2023-03-16T00:22:18;99981.20;;;9.79;52.87
62592;BME280;48659;41.622;2.276;2023-03-16T00:24:45;99986.43;;;10.26;52.40
62592;BME280;48659;41.622;2.276;2023-03-16T00:27:14;99988.27;;;11.16;50.27
62592;BME280;48659;41.622;2.276;2023-03-16T00:29:42;99983.64;;;9.84;52.52
62592;BME280;48659;41.622;2.276;2023-03-16T00:32:11;99984.43;;;8.50;56.85
62592;BME280;48659;41.622;2.276;2023-03-16T00:34:39;99986.70;;;6.76;61.53
62592;BME280;48659;41.622;2.276;2023-03-16T00:37:07;99987.28;;;7.00;61.73
62592;BME280;48659;41.622;2.276;2023-03-16T00:39:34;99991.84;;;8.21;58.28
62592;BME280;48659;41.622;2.276;2023-03-16T00:42:01;99992.73;;;7.64;59.82
62592;BME280;48659;41.622;2.276;2023-03-16T00:44:29;99991.72;;;7.38;59.70
62592;BME280;48659;41.622;2.276;2023-03-16T00:46:56;99996.40;;;5.71;65.89
62592;BME280;48659;41.622;2.276;2023-03-16T00:49:25;99997.00;;;6.23;63.84
62592;BME280;48659;41.622;2.276;2023-03-16T00:51:53;99995.09;;;6.67;63.22
62592;BME280;48659;41.622;2.276;2023-03-16T00:54:24;99987.07;;;6.93;59.74
62592;BME280;48659;41.622;2.276;2023-03-16T00:56:51;99987.15;;;7.87;58.86
62592;BME280;48659;41.622;2.276;2023-03-16T00:59:20;99991.66;;;8.16;57.35
62592;BME280;48659;41.622;2.276;2023-03-16T01:01:48;99996.16;;;6.33;62.04
62592;BME280;48659;41.622;2.276;2023-03-16T01:04:15;99987.80;;;7.76;58.43
62592;BME280;48659;41.622;2.276;2023-03-16T01:06:42;99984.19;;;7.53;57.88
62592;BME280;48659;41.622;2.276;2023-03-16T01:09:10;99980.91;;;7.66;57.49
62592;BME280;48659;41.622;2.276;2023-03-16T01:11:37;99981.83;;;8.99;55.32
62592;BME280;48659;41.622;2.276;2023-03-16T01:14:10;99982.69;;;9.45;54.77
62592;BME280;48659;41.622;2.276;2023-03-16T01:16:38;99985.40;;;7.48;58.33
62592;BME280;48659;41.622;2.276;2023-03-16T01:19:05;99984.63;;;7.20;60.46
62592;BME280;48659;41.622;2.276;2023-03-16T01:21:33;99982.68;;;7.58;57.01
62592;BME280;48659;41.622;2.276;2023-03-16T01:24:00;99972.40;;;8.89;55.95
62592;BME280;48659;41.622;2.276;2023-03-16T01:26:27;99973.64;;;8.20;55.84
62592;BME280;48659;41.622;2.276;2023-03-16T01:28:55;99975.13;;;9.06;54.77
62592;BME280;48659;41.622;2.276;2023-03-16T01:31:22;99982.76;;;8.02;55.84
62592;BME280;48659;41.622;2.276;2023-03-16T01:33:50;99978.74;;;7.67;57.53
62592;BME280;48659;41.622;2.276;2023-03-16T01:36:19;99969.25;;;7.37;58.90
62592;BME280;48659;41.622;2.276;2023-03-16T01:38:47;99962.71;;;7.67;58.23
62592;BME280;48659;41.622;2.276;2023-03-16T01:41:15;99955.42;;;9.27;54.49
62592;BME280;48659;41.622;2.276;2023-03-16T01:43:42;99957.39;;;8.69;54.99
62592;BME280;48659;41.622;2.276;2023-03-16T01:46:16;99955.18;;;9.59;53.78
62592;BME280;48659;41.622;2.276;2023-03-16T01:48:51;99953.04;;;9.07;54.97
62592;BME280;48659;41.622;2.276;2023-03-16T01:51:24;99954.70;;;7.98;57.09
62592;BME280;48659;41.622;2.276;2023-03-16T01:53:58;99953.66;;;8.70;55.87
62592;BME280;48659;41.622;2.276;2023-03-16T01:56:32;99950.16;;;8.67;54.27
62592;BME280;48659;41.622;2.276;2023-03-16T01:59:13;99954.70;;;8.96;54.39
62592;BME280;48659;41.622;2.276;2023-03-16T02:01:42;99950.71;;;9.59;53.16
62592;BME280;48659;41.622;2.276;2023-03-16T02:04:31;99949.58;;;10.07;53.12
62592;BME280;48659;41.622;2.276;2023-03-16T02:07:01;99943.05;;;8.91;55.14
62592;BME280;48659;41.622;2.276;2023-03-16T02:09:30;99938.49;;;8.25;56.59
62592;BME280;48659;41.622;2.276;2023-03-16T02:11:57;99932.74;;;8.20;57.67
62592;BME280;48659;41.622;2.276;2023-03-16T02:14:26;99922.55;;;8.73;53.74
62592;BME280;48659;41.622;2.276;2023-03-16T02:16:53;99918.92;;;7.05;57.33
62592;BME280;48659;41.622;2.276;2023-03-16T02:19:31;99912.43;;;9.02;54.60
62592;BME280;48659;41.622;2.276;2023-03-16T02:22:03;99908.09;;;9.31;54.29
62592;BME280;48659;41.622;2.276;2023-03-16T02:24:32;99905.48;;;9.57;53.23
62592;BME280;48659;41.622;2.276;2023-03-16T02:27:01;99899.26;;;9.88;53.13
62592;BME280;48659;41.622;2.276;2023-03-16T02:29:48;99891.13;;;8.52;55.39
62592;BME280;48659;41.622;2.276;2023-03-16T02:32:21;99889.01;;;7.43;58.52
62592;BME280;48659;41.622;2.276;2023-03-16T02:34:49;99879.40;;;9.15;55.47
62592;BME280;48659;41.622;2.276;2023-03-16T02:37:17;99873.69;;;9.27;55.11
62592;BME280;48659;41.622;2.276;2023-03-16T02:39:44;99873.53;;;8.13;56.92
62592;BME280;48659;41.622;2.276;2023-03-16T02:42:13;99873.81;;;6.28;62.25
62592;BME280;48659;41.622;2.276;2023-03-16T02:44:45;99875.42;;;6.65;62.98
62592;BME280;48659;41.622;2.276;2023-03-16T02:47:18;99870.59;;;7.01;61.68
62592;BME280;48659;41.622;2.276;2023-03-16T02:49:49;99863.31;;;6.44;63.90
62592;BME280;48659;41.622;2.276;2023-03-16T02:52:16;99862.95;;;7.69;61.54
62592;BME280;48659;41.622;2.276;2023-03-16T02:54:43;99861.79;;;7.46;60.40
62592;BME280;48659;41.622;2.276;2023-03-16T02:57:11;99860.57;;;8.99;57.13
62592;BME280;48659;41.622;2.276;2023-03-16T02:59:38;99860.77;;;9.63;54.44
62592;BME280;48659;41.622;2.276;2023-03-16T03:02:05;99859.11;;;9.78;54.60
62592;BME280;48659;41.622;2.276;2023-03-16T03:04:33;99856.13;;;9.52;54.73
62592;BME280;48659;41.622;2.276;2023-03-16T03:07:01;99860.35;;;9.84;53.85
62592;BME280;48659;41.622;2.276;2023-03-16T03:09:28;99861.96;;;9.02;53.70
62592;BME280;48659;41.622;2.276;2023-03-16T03:11:56;99858.38;;;9.89;53.13
62592;BME280;48659;41.622;2.276;2023-03-16T03:14:24;99855.14;;;9.48;52.42
62592;BME280;48659;41.622;2.276;2023-03-16T03:16:51;99854.81;;;10.39;51.77
62592;BME280;48659;41.622;2.276;2023-03-16T03:23:03;99848.98;;;9.60;48.86
62592;BME280;48659;41.622;2.276;2023-03-16T03:25:31;99845.14;;;11.62;47.95
62592;BME280;48659;41.622;2.276;2023-03-16T03:27:59;99846.94;;;11.25;48.74
62592;BME280;48659;41.622;2.276;2023-03-16T03:30:28;99846.43;;;11.17;49.34
62592;BME280;48659;41.622;2.276;2023-03-16T03:32:55;99849.36;;;10.79;49.50
62592;BME280;48659;41.622;2.276;2023-03-16T03:35:22;99853.34;;;10.50;50.68
62592;BME280;48659;41.622;2.276;2023-03-16T03:37:50;99854.89;;;9.95;51.85
62592;BME280;48659;41.622;2.276;2023-03-16T03:40:19;99857.32;;;10.73;51.07
62592;BME280;48659;41.622;2.276;2023-03-16T03:42:47;99850.80;;;10.53;51.58
62592;BME280;48659;41.622;2.276;2023-03-16T03:45:15;99843.61;;;10.77;50.74
62592;BME280;48659;41.622;2.276;2023-03-16T03:47:47;99850.07;;;8.71;52.45
62592;BME280;48659;41.622;2.276;2023-03-16T03:50:15;99853.17;;;9.61;52.40
62592;BME280;48659;41.622;2.276;2023-03-16T03:52:43;99856.63;;;9.10;52.36
62592;BME280;48659;41.622;2.276;2023-03-16T03:55:11;99858.06;;;9.56;52.93
62592;BME280;48659;41.622;2.276;2023-03-16T03:57:40;99859.88;;;9.66;52.10
62592;BME280;48659;41.622;2.276;2023-03-16T04:00:09;99855.94;;;9.95;51.19
62592;BME280;48659;41.622;2.276;2023-03-16T04:02:36;99859.31;;;9.28;51.62
62592;BME280;48659;41.622;2.276;2023-03-16T04:05:04;99862.44;;;9.00;52.98
62592;BME280;48659;41.622;2.276;2023-03-16T04:07:32;99863.69;;;8.94;53.43
62592;BME280;48659;41.622;2.276;2023-03-16T04:09:59;99861.08;;;8.49;54.88
62592;BME280;48659;41.622;2.276;2023-03-16T04:12:27;99859.65;;;8.54;55.77
62592;BME280;48659;41.622;2.276;2023-03-16T04:14:54;99864.11;;;6.92;59.10
62592;BME280;48659;41.622;2.276;2023-03-16T04:17:22;99866.60;;;6.65;61.29
62592;BME280;48659;41.622;2.276;2023-03-16T04:19:50;99867.81;;;7.41;58.31
62592;BME280;48659;41.622;2.276;2023-03-16T04:22:18;99872.40;;;8.48;55.39
62592;BME280;48659;41.622;2.276;2023-03-16T04:24:46;99869.23;;;8.78;53.54
62592;BME280;48659;41.622;2.276;2023-03-16T04:27:13;99870.34;;;9.19;53.11
62592;BME280;48659;41.622;2.276;2023-03-16T04:29:41;99865.52;;;9.06;52.86
62592;BME280;48659;41.622;2.276;2023-03-16T04:32:09;99872.21;;;9.51;53.23
62592;BME280;48659;41.622;2.276;2023-03-16T04:34:36;99874.20;;;9.14;53.08
62592;BME280;48659;41.622;2.276;2023-03-16T04:37:04;99878.32;;;9.40;52.54
62592;BME280;48659;41.622;2.276;2023-03-16T04:39:32;99877.39;;;8.88;54.18
62592;BME280;48659;41.622;2.276;2023-03-16T04:41:59;99883.50;;;8.74;54.39
62592;BME280;48659;41.622;2.276;2023-03-16T04:44:27;99879.46;;;9.44;52.58
62592;BME280;48659;41.622;2.276;2023-03-16T04:46:54;99877.26;;;8.78;53.21
62592;BME280;48659;41.622;2.276;2023-03-16T04:49:22;99879.61;;;9.17;53.61
62592;BME280;48659;41.622;2.276;2023-03-16T04:51:50;99882.92;;;8.96;52.79
62592;BME280;48659;41.622;2.276;2023-03-16T04:54:17;99883.31;;;9.13;52.71
62592;BME280;48659;41.622;2.276;2023-03-16T04:56:45;99885.81;;;8.59;52.50
62592;BME280;48659;41.622;2.276;2023-03-16T04:59:13;99883.75;;;8.95;52.39
62592;BME280;48659;41.622;2.276;2023-03-16T05:01:41;99887.08;;;8.98;52.52
62592;BME280;48659;41.622;2.276;2023-03-16T05:04:09;99889.58;;;9.09;52.98
62592;BME280;48659;41.622;2.276;2023-03-16T05:06:37;99886.87;;;8.79;53.66
62592;BME280;48659;41.622;2.276;2023-03-16T05:09:05;99879.26;;;9.21;52.34
62592;BME280;48659;41.622;2.276;2023-03-16T05:11:32;99874.85;;;8.98;52.48
62592;BME280;48659;41.622;2.276;2023-03-16T05:14:00;99885.14;;;8.84;52.91
62592;BME280;48659;41.622;2.276;2023-03-16T05:16:28;99891.72;;;8.59;53.72
62592;BME280;48659;41.622;2.276;2023-03-16T05:18:57;99892.43;;;7.71;54.16
62592;BME280;48659;41.622;2.276;2023-03-16T05:21:25;99890.19;;;6.26;58.35
62592;BME280;48659;41.622;2.276;2023-03-16T05:23:53;99881.20;;;7.87;54.18
62592;BME280;48659;41.622;2.276;2023-03-16T05:26:20;99892.35;;;6.96;58.52
62592;BME280;48659;41.622;2.276;2023-03-16T05:28:48;99896.04;;;7.53;56.34
62592;BME280;48659;41.622;2.276;2023-03-16T05:31:15;99897.59;;;8.65;54.11
62592;BME280;48659;41.622;2.276;2023-03-16T05:33:43;99892.72;;;7.40;55.28
62592;BME280;48659;41.622;2.276;2023-03-16T05:36:10;99884.61;;;6.75;59.08
62592;BME280;48659;41.622;2.276;2023-03-16T05:38:39;99876.38;;;7.37;58.13
62592;BME280;48659;41.622;2.276;2023-03-16T05:41:07;99876.45;;;7.21;56.85
62592;BME280;48659;41.622;2.276;2023-03-16T05:43:34;99876.51;;;7.68;56.69
62592;BME280;48659;41.622;2.276;2023-03-16T05:46:02;99880.05;;;7.94;56.66
62592;BME280;48659;41.622;2.276;2023-03-16T05:48:30;99876.77;;;8.07;56.02
62592;BME280;48659;41.622;2.276;2023-03-16T05:50:58;99874.27;;;7.98;55.26
62592;BME280;48659;41.622;2.276;2023-03-16T05:53:25;99873.33;;;8.44;55.01
62592;BME280;48659;41.622;2.276;2023-03-16T05:55:53;99865.92;;;8.98;53.23
62592;BME280;48659;41.622;2.276;2023-03-16T05:58:20;99869.63;;;9.46;52.52
62592;BME280;48659;41.622;2.276;2023-03-16T06:00:48;99869.77;;;8.67;51.78
62592;BME280;48659;41.622;2.276;2023-03-16T06:03:16;99868.01;;;9.09;51.74
62592;BME280;48659;41.622;2.276;2023-03-16T06:05:47;99864.48;;;8.37;52.15
62592;BME280;48659;41.622;2.276;2023-03-16T06:08:15;99866.40;;;9.40;51.14
62592;BME280;48659;41.622;2.276;2023-03-16T06:10:42;99871.36;;;8.88;52.21
62592;BME280;48659;41.622;2.276;2023-03-16T06:13:12;99870.06;;;9.01;52.17
62592;BME280;48659;41.622;2.276;2023-03-16T06:15:40;99866.66;;;8.52;52.79
62592;BME280;48659;41.622;2.276;2023-03-16T06:18:07;99869.11;;;8.74;52.69
62592;BME280;48659;41.622;2.276;2023-03-16T06:20:34;99874.44;;;9.19;52.27
62592;BME280;48659;41.622;2.276;2023-03-16T06:23:01;99874.57;;;9.56;51.10
62592;BME280;48659;41.622;2.276;2023-03-16T06:25:29;99870.07;;;9.12;52.67
62592;BME280;48659;41.622;2.276;2023-03-16T06:27:57;99871.36;;;8.53;52.09
62592;BME280;48659;41.622;2.276;2023-03-16T06:30:25;99878.73;;;10.27;50.13
62592;BME280;48659;41.622;2.276;2023-03-16T06:32:52;99885.42;;;9.81;50.24
62592;BME280;48659;41.622;2.276;2023-03-16T06:35:20;99893.59;;;9.79;51.43
62592;BME280;48659;41.622;2.276;2023-03-16T06:37:47;99894.37;;;9.56;51.60
62592;BME280;48659;41.622;2.276;2023-03-16T06:40:14;99892.33;;;10.41;50.46
62592;BME280;48659;41.622;2.276;2023-03-16T06:42:42;99895.38;;;9.83;50.47
62592;BME280;48659;41.622;2.276;2023-03-16T06:45:10;99896.83;;;10.40;50.10
62592;BME280;48659;41.622;2.276;2023-03-16T06:47:37;99896.22;;;10.64;50.09
62592;BME280;48659;41.622;2.276;2023-03-16T06:50:06;99894.09;;;11.17;50.35
62592;BME280;48659;41.622;2.276;2023-03-16T06:52:33;99889.69;;;11.03;50.14
62592;BME280;48659;41.622;2.276;2023-03-16T06:55:01;99889.88;;;10.02;51.17
62592;BME280;48659;41.622;2.276;2023-03-16T06:57:28;99892.03;;;10.57;51.01
62592;BME280;48659;41.622;2.276;2023-03-16T06:59:56;99893.53;;;10.57;50.62
62592;BME280;48659;41.622;2.276;2023-03-16T07:02:23;99898.70;;;10.83;50.32
62592;BME280;48659;41.622;2.276;2023-03-16T07:04:51;99896.49;;;10.43;50.28
62592;BME280;48659;41.622;2.276;2023-03-16T07:07:19;99899.87;;;11.19;49.32
62592;BME280;48659;41.622;2.276;2023-03-16T07:09:46;99899.00;;;10.89;50.02
62592;BME280;48659;41.622;2.276;2023-03-16T07:12:14;99904.69;;;11.64;49.22
62592;BME280;48659;41.622;2.276;2023-03-16T07:14:42;99916.12;;;10.58;51.04
62592;BME280;48659;41.622;2.276;2023-03-16T07:17:10;99916.18;;;11.09;51.09
62592;BME280;48659;41.622;2.276;2023-03-16T07:19:37;99912.55;;;11.89;50.37
62592;BME280;48659;41.622;2.276;2023-03-16T07:22:05;99914.69;;;11.39;50.88
62592;BME280;48659;41.622;2.276;2023-03-16T07:24:32;99911.86;;;11.55;50.46
62592;BME280;48659;41.622;2.276;2023-03-16T07:27:00;99908.67;;;11.64;50.11
62592;BME280;48659;41.622;2.276;2023-03-16T07:29:28;99907.60;;;12.40;50.18
62592;BME280;48659;41.622;2.276;2023-03-16T07:31:55;99911.46;;;11.40;50.98
62592;BME280;48659;41.622;2.276;2023-03-16T07:34:22;99911.67;;;11.50;51.67
62592;BME280;48659;41.622;2.276;2023-03-16T07:36:50;99910.53;;;11.37;51.47
62592;BME280;48659;41.622;2.276;2023-03-16T07:39:17;99905.36;;;11.64;51.35
62592;BME280;48659;41.622;2.276;2023-03-16T07:41:45;99912.00;;;11.39;51.26
62592;BME280;48659;41.622;2.276;2023-03-16T07:44:12;99915.10;;;11.30;52.52
62592;BME280;48659;41.622;2.276;2023-03-16T07:46:41;99918.23;;;10.73;53.57
62592;BME280;48659;41.622;2.276;2023-03-16T07:49:09;99912.68;;;10.70;55.01
62592;BME280;48659;41.622;2.276;2023-03-16T07:51:39;99915.54;;;9.32;56.98
62592;BME280;48659;41.622;2.276;2023-03-16T07:54:07;99905.64;;;11.28;53.17
62592;BME280;48659;41.622;2.276;2023-03-16T07:56:35;99908.98;;;10.30;55.04
62592;BME280;48659;41.622;2.276;2023-03-16T07:59:02;99906.98;;;11.68;52.27
62592;BME280;48659;41.622;2.276;2023-03-16T08:01:30;99910.41;;;11.46;53.00
62592;BME280;48659;41.622;2.276;2023-03-16T08:03:57;99910.35;;;11.18;52.38
62592;BME280;48659;41.622;2.276;2023-03-16T08:06:24;99908.08;;;12.29;49.85
62592;BME280;48659;41.622;2.276;2023-03-16T08:08:51;99911.12;;;12.48;49.70
62592;BME280;48659;41.622;2.276;2023-03-16T08:11:19;99919.05;;;11.95;50.61
62592;BME280;48659;41.622;2.276;2023-03-16T08:13:47;99920.47;;;12.13;49.84
62592;BME280;48659;41.622;2.276;2023-03-16T08:16:14;99915.81;;;12.57;48.77
62592;BME280;48659;41.622;2.276;2023-03-16T08:18:48;99914.04;;;12.97;47.42
62592;BME280;48659;41.622;2.276;2023-03-16T08:21:16;99922.78;;;12.07;49.76
62592;BME280;48659;41.622;2.276;2023-03-16T08:23:43;99924.58;;;12.51;48.83
62592;BME280;48659;41.622;2.276;2023-03-16T08:26:11;99926.35;;;12.44;48.49
62592;BME280;48659;41.622;2.276;2023-03-16T08:28:39;99928.69;;;10.09;54.12
62592;BME280;48659;41.622;2.276;2023-03-16T08:31:06;99930.35;;;10.25;55.47
62592;BME280;48659;41.622;2.276;2023-03-16T08:33:34;99925.45;;;12.82;48.84
62592;BME280;48659;41.622;2.276;2023-03-16T08:36:01;99927.77;;;10.87;53.11
62592;BME280;48659;41.622;2.276;2023-03-16T08:38:31;99927.51;;;12.50;49.99
62592;BME280;48659;41.622;2.276;2023-03-16T08:40:58;99930.05;;;10.24;53.76
62592;BME280;48659;41.622;2.276;2023-03-16T08:43:25;99934.06;;;9.77;55.85
62592;BME280;48659;41.622;2.276;2023-03-16T08:45:52;99927.92;;;10.96;51.22
62592;BME280;48659;41.622;2.276;2023-03-16T08:48:20;99928.31;;;12.28;50.16
62592;BME280;48659;41.622;2.276;2023-03-16T08:50:47;99927.72;;;12.42;48.28
62592;BME280;48659;41.622;2.276;2023-03-16T08:53:15;99922.99;;;13.67;46.69
62592;BME280;48659;41.622;2.276;2023-03-16T08:55:44;99920.43;;;11.37;49.71
62592;BME280;48659;41.622;2.276;2023-03-16T08:58:12;99919.48;;;13.08;47.88
62592;BME280;48659;41.622;2.276;2023-03-16T09:00:40;99920.27;;;13.77;45.99
62592;BME280;48659;41.622;2.276;2023-03-16T09:03:07;99920.96;;;14.38;44.46
62592;BME280;48659;41.622;2.276;2023-03-16T09:05:35;99918.13;;;14.55;43.36
62592;BME280;48659;41.622;2.276;2023-03-16T09:08:03;99920.57;;;14.07;43.58
62592;BME280;48659;41.622;2.276;2023-03-16T09:10:30;99924.78;;;14.61;43.16
62592;BME280;48659;41.622;2.276;2023-03-16T09:12:58;99927.89;;;13.51;46.18
62592;BME280;48659;41.622;2.276;2023-03-16T09:15:27;99921.86;;;15.18;42.87
62592;BME280;48659;41.622;2.276;2023-03-16T09:17:54;99919.59;;;14.49;44.55
62592;BME280;48659;41.622;2.276;2023-03-16T09:20:21;99919.58;;;14.09;44.76
62592;BME280;48659;41.622;2.276;2023-03-16T09:22:48;99920.35;;;13.65;45.58
62592;BME280;48659;41.622;2.276;2023-03-16T09:25:16;99922.67;;;14.84;43.46
62592;BME280;48659;41.622;2.276;2023-03-16T09:27:43;99918.80;;;14.65;42.79
62592;BME280;48659;41.622;2.276;2023-03-16T09:30:11;99913.65;;;15.34;41.52
62592;BME280;48659;41.622;2.276;2023-03-16T09:32:39;99911.45;;;15.64;41.23
62592;BME280;48659;41.622;2.276;2023-03-16T09:35:08;99914.54;;;15.24;41.11
62592;BME280;48659;41.622;2.276;2023-03-16T09:37:35;99908.02;;;14.71;41.69
62592;BME280;48659;41.622;2.276;2023-03-16T09:40:04;99903.06;;;15.19;41.24
62592;BME280;48659;41.622;2.276;2023-03-16T09:42:35;99904.51;;;14.56;40.84
62592;BME280;48659;41.622;2.276;2023-03-16T09:45:12;99903.71;;;15.10;39.14
62592;BME280;48659;41.622;2.276;2023-03-16T09:47:45;99895.97;;;15.23;39.09
62592;BME280;48659;41.622;2.276;2023-03-16T09:50:20;99897.73;;;14.19;38.59
62592;BME280;48659;41.622;2.276;2023-03-16T09:52:55;99896.35;;;14.91;37.73
62592;BME280;48659;41.622;2.276;2023-03-16T09:55:30;99898.96;;;15.73;36.11
62592;BME280;48659;41.622;2.276;2023-03-16T09:58:00;99889.64;;;15.95;36.42
62592;BME280;48659;41.622;2.276;2023-03-16T10:00:33;99893.68;;;14.71;36.91
62592;BME280;48659;41.622;2.276;2023-03-16T10:03:13;99881.75;;;15.53;35.54
62592;BME280;48659;41.622;2.276;2023-03-16T10:05:54;99881.67;;;15.40;34.74
62592;BME280;48659;41.622;2.276;2023-03-16T10:08:25;99885.90;;;15.58;36.69
62592;BME280;48659;41.622;2.276;2023-03-16T10:11:17;99881.28;;;15.50;35.07
62592;BME280;48659;41.622;2.276;2023-03-16T10:13:51;99873.03;;;15.97;33.92
62592;BME280;48659;41.622;2.276;2023-03-16T10:16:23;99878.87;;;14.83;36.26
62592;BME280;48659;41.622;2.276;2023-03-16T10:18:58;99876.12;;;15.72;34.97
62592;BME280;48659;41.622;2.276;2023-03-16T10:21:30;99868.36;;;16.15;34.23
62592;BME280;48659;41.622;2.276;2023-03-16T10:24:00;99862.62;;;15.34;33.81
62592;BME280;48659;41.622;2.276;2023-03-16T10:26:35;99867.33;;;15.46;34.37
62592;BME280;48659;41.622;2.276;2023-03-16T10:29:10;99867.77;;;16.29;32.71
62592;BME280;48659;41.622;2.276;2023-03-16T10:31:39;99865.33;;;16.29;32.70
62592;BME280;48659;41.622;2.276;2023-03-16T10:34:08;99859.66;;;16.39;32.05
62592;BME280;48659;41.622;2.276;2023-03-16T10:36:47;99867.88;;;16.81;33.59
62592;BME280;48659;41.622;2.276;2023-03-16T10:39:15;99860.65;;;17.19;31.52
62592;BME280;48659;41.622;2.276;2023-03-16T10:41:44;99862.48;;;16.32;32.62
62592;BME280;48659;41.622;2.276;2023-03-16T10:44:14;99859.67;;;16.97;32.33
62592;BME280;48659;41.622;2.276;2023-03-16T10:46:45;99857.56;;;16.74;32.55
62592;BME280;48659;41.622;2.276;2023-03-16T10:49:23;99851.92;;;17.58;31.56
62592;BME280;48659;41.622;2.276;2023-03-16T10:51:52;99856.88;;;15.64;34.52
62592;BME280;48659;41.622;2.276;2023-03-16T10:54:27;99851.42;;;15.92;34.65
62592;BME280;48659;41.622;2.276;2023-03-16T10:56:56;99841.77;;;16.45;32.97
62592;BME280;48659;41.622;2.276;2023-03-16T10:59:28;99846.70;;;17.64;32.85
62592;BME280;48659;41.622;2.276;2023-03-16T11:01:56;99839.23;;;17.72;32.17
62592;BME280;48659;41.622;2.276;2023-03-16T11:04:24;99834.60;;;16.95;33.34
62592;BME280;48659;41.622;2.276;2023-03-16T11:06:54;99832.87;;;16.79;32.94
62592;BME280;48659;41.622;2.276;2023-03-16T11:09:24;99834.58;;;17.77;32.39
62592;BME280;48659;41.622;2.276;2023-03-16T11:11:52;99829.61;;;17.54;32.37
62592;BME280;48659;41.622;2.276;2023-03-16T11:14:24;99829.44;;;18.05;32.01
62592;BME280;48659;41.622;2.276;2023-03-16T11:16:59;99832.51;;;17.42;32.10
62592;BME280;48659;41.622;2.276;2023-03-16T11:19:30;99829.96;;;18.25;31.76
62592;BME280;48659;41.622;2.276;2023-03-16T11:22:01;99823.04;;;18.12;31.08
62592;BME280;48659;41.622;2.276;2023-03-16T11:24:40;99817.52;;;18.31;30.62
62592;BME280;48659;41.622;2.276;2023-03-16T11:27:17;99819.23;;;17.95;30.91
62592;BME280;48659;41.622;2.276;2023-03-16T11:29:55;99816.45;;;17.58;30.77
62592;BME280;48659;41.622;2.276;2023-03-16T11:32:28;99808.42;;;18.88;30.14
62592;BME280;48659;41.622;2.276;2023-03-16T11:34:56;99815.31;;;18.02;30.84
62592;BME280;48659;41.622;2.276;2023-03-16T11:37:37;99811.85;;;18.11;30.60
62592;BME280;48659;41.622;2.276;2023-03-16T11:40:19;99809.37;;;17.38;31.49
62592;BME280;48659;41.622;2.276;2023-03-16T11:43:00;99809.81;;;17.69;31.55
62592;BME280;48659;41.622;2.276;2023-03-16T11:45:37;99804.54;;;19.15;29.64
62592;BME280;48659;41.622;2.276;2023-03-16T11:48:21;99796.30;;;19.37;29.64
62592;BME280;48659;41.622;2.276;2023-03-16T11:50:59;99785.69;;;19.21;29.32
62592;BME280;48659;41.622;2.276;2023-03-16T11:53:37;99789.45;;;19.28;29.79
62592;BME280;48659;41.622;2.276;2023-03-16T11:56:23;99790.20;;;19.27;29.87
62592;BME280;48659;41.622;2.276;2023-03-16T11:59:11;99785.00;;;19.73;29.12
62592;BME280;48659;41.622;2.276;2023-03-16T12:01:52;99783.30;;;19.12;30.00
62592;BME280;48659;41.622;2.276;2023-03-16T12:04:27;99784.14;;;18.65;31.54
62592;BME280;48659;41.622;2.276;2023-03-16T12:07:18;99776.55;;;19.30;31.27
62592;BME280;48659;41.622;2.276;2023-03-16T12:10:02;99772.27;;;18.37;32.60
62592;BME280;48659;41.622;2.276;2023-03-16T12:12:47;99775.29;;;18.64;32.68
62592;BME280;48659;41.622;2.276;2023-03-16T12:15:25;99782.22;;;16.61;35.77
62592;BME280;48659;41.622;2.276;2023-03-16T12:18:01;99774.00;;;17.69;33.57
62592;BME280;48659;41.622;2.276;2023-03-16T12:20:34;99766.66;;;19.34;32.19
62592;BME280;48659;41.622;2.276;2023-03-16T12:23:19;99773.00;;;17.72;33.96
62592;BME280;48659;41.622;2.276;2023-03-16T12:25:49;99763.87;;;18.21;33.00
62592;BME280;48659;41.622;2.276;2023-03-16T12:28:22;99765.47;;;18.69;32.19
62592;BME280;48659;41.622;2.276;2023-03-16T12:30:58;99760.79;;;18.32;32.22
62592;BME280;48659;41.622;2.276;2023-03-16T12:33:41;99752.91;;;19.38;31.50
62592;BME280;48659;41.622;2.276;2023-03-16T12:36:33;99752.05;;;19.35;31.14
62592;BME280;48659;41.622;2.276;2023-03-16T12:39:05;99747.90;;;18.69;31.90
62592;BME280;48659;41.622;2.276;2023-03-16T12:41:39;99739.86;;;19.28;31.35
62592;BME280;48659;41.622;2.276;2023-03-16T12:44:16;99742.93;;;16.78;34.39
62592;BME280;48659;41.622;2.276;2023-03-16T12:46:54;99739.46;;;17.32;33.03
62592;BME280;48659;41.622;2.276;2023-03-16T12:49:26;99746.33;;;17.96;32.67
62592;BME280;48659;41.622;2.276;2023-03-16T12:51:59;99751.20;;;18.11;32.08
62592;BME280;48659;41.622;2.276;2023-03-16T12:54:27;99743.73;;;18.81;30.90
62592;BME280;48659;41.622;2.276;2023-03-16T12:57:00;99741.75;;;18.85;31.19
62592;BME280;48659;41.622;2.276;2023-03-16T12:59:37;99741.19;;;18.57;31.71
62592;BME280;48659;41.622;2.276;2023-03-16T13:02:13;99747.71;;;17.27;33.11
62592;BME280;48659;41.622;2.276;2023-03-16T13:04:46;99732.80;;;18.40;31.37
62592;BME280;48659;41.622;2.276;2023-03-16T13:07:17;99732.72;;;16.96;32.90
62592;BME280;48659;41.622;2.276;2023-03-16T13:09:52;99731.59;;;16.41;34.36
62592;BME280;48659;41.622;2.276;2023-03-16T13:12:24;99729.69;;;17.25;33.51
62592;BME280;48659;41.622;2.276;2023-03-16T13:14:51;99718.93;;;16.13;34.23
62592;BME280;48659;41.622;2.276;2023-03-16T13:17:24;99712.49;;;16.17;34.61
62592;BME280;48659;41.622;2.276;2023-03-16T13:20:04;99711.78;;;16.77;33.03
62592;BME280;48659;41.622;2.276;2023-03-16T13:22:44;99706.38;;;16.11;34.61